sensor_id;sensor_type;location;lat;lon;timestamp;temperature;humidity
47660;DHT22;33403;43.608;1.458;2023-08-21T00:01:40;27.70;99.90
47660;DHT22;33403;43.608;1.458;2023-08-21T00:04:06;27.70;99.90
47660;DHT22;33403;43.608;1.458;2023-08-21T00:06:32;27.60;99.90
47660;DHT22;33403;43.608;1.458;2023-08-21T00:08:57;27.60;99.90
47660;DHT22;33403;43.608;1.458;2023-08-21T00:11:23;27.60;99.90
47660;DHT22;33403;43.608;1.458;2023-08-21T00:13:49;27.60;99.90
47660;DHT22;33403;43.608;1.458;2023-08-21T00:16:16;27.50;99.90
47660;DHT22;33403;43.608;1.458;2023-08-21T00:18:42;27.50;99.90
47660;DHT22;33403;43.608;1.458;2023-08-21T00:21:07;27.50;99.90
47660;DHT22;33403;43.608;1.458;2023-08-21T00:23:33;27.50;99.90
47660;DHT22;33403;43.608;1.458;2023-08-21T00:25:59;27.40;99.90
47660;DHT22;33403;43.608;1.458;2023-08-21T00:28:24;27.40;99.90
47660;DHT22;33403;43.608;1.458;2023-08-21T00:30:50;27.30;99.90
47660;DHT22;33403;43.608;1.458;2023-08-21T00:33:16;27.30;99.90
47660;DHT22;33403;43.608;1.458;2023-08-21T00:35:44;27.30;99.90
47660;DHT22;33403;43.608;1.458;2023-08-21T00:38:10;27.30;99.90
47660;DHT22;33403;43.608;1.458;2023-08-21T00:40:36;27.20;99.90
47660;DHT22;33403;43.608;1.458;2023-08-21T00:43:02;27.20;99.90
47660;DHT22;33403;43.608;1.458;2023-08-21T00:45:28;27.20;99.90
47660;DHT22;33403;43.608;1.458;2023-08-21T00:47:54;27.20;99.90
47660;DHT22;33403;43.608;1.458;2023-08-21T00:50:20;27.10;99.90
47660;DHT22;33403;43.608;1.458;2023-08-21T00:52:45;27.10;99.90
47660;DHT22;33403;43.608;1.458;2023-08-21T00:55:13;27.10;99.90
47660;DHT22;33403;43.608;1.458;2023-08-21T00:57:39;27.10;99.90
47660;DHT22;33403;43.608;1.458;2023-08-21T01:00:06;27.00;99.90
47660;DHT22;33403;43.608;1.458;2023-08-21T01:02:35;26.90;99.90
47660;DHT22;33403;43.608;1.458;2023-08-21T01:05:01;26.90;99.90
47660;DHT22;33403;43.608;1.458;2023-08-21T01:07:27;26.90;99.90
47660;DHT22;33403;43.608;1.458;2023-08-21T01:13:09;26.80;99.90
47660;DHT22;33403;43.608;1.458;2023-08-21T01:15:38;26.80;99.90
47660;DHT22;33403;43.608;1.458;2023-08-21T01:18:04;26.80;99.90
47660;DHT22;33403;43.608;1.458;2023-08-21T01:20:31;26.70;99.90
47660;DHT22;33403;43.608;1.458;2023-08-21T01:22:56;26.70;99.90
47660;DHT22;33403;43.608;1.458;2023-08-21T01:25:22;26.60;99.90
47660;DHT22;33403;43.608;1.458;2023-08-21T01:27:49;26.60;99.90
47660;DHT22;33403;43.608;1.458;2023-08-21T01:30:16;26.50;99.90
47660;DHT22;33403;43.608;1.458;2023-08-21T01:33:00;26.50;99.90
47660;DHT22;33403;43.608;1.458;2023-08-21T01:35:28;26.50;99.90
47660;DHT22;33403;43.608;1.458;2023-08-21T01:37:55;26.50;99.90
47660;DHT22;33403;43.608;1.458;2023-08-21T01:40:22;26.50;99.90
47660;DHT22;33403;43.608;1.458;2023-08-21T01:42:48;26.50;99.90
47660;DHT22;33403;43.608;1.458;2023-08-21T01:45:14;26.40;99.90
47660;DHT22;33403;43.608;1.458;2023-08-21T01:47:39;26.40;99.90
47660;DHT22;33403;43.608;1.458;2023-08-21T01:50:06;26.30;99.90
47660;DHT22;33403;43.608;1.458;2023-08-21T01:52:31;26.30;99.90
47660;DHT22;33403;43.608;1.458;2023-08-21T01:54:57;26.30;99.90
47660;DHT22;33403;43.608;1.458;2023-08-21T01:57:23;26.30;99.90
47660;DHT22;33403;43.608;1.458;2023-08-21T01:59:49;26.20;99.90
47660;DHT22;33403;43.608;1.458;2023-08-21T02:02:15;26.20;99.90
47660;DHT22;33403;43.608;1.458;2023-08-21T02:04:40;26.20;99.90
47660;DHT22;33403;43.608;1.458;2023-08-21T02:07:06;26.10;99.90
47660;DHT22;33403;43.608;1.458;2023-08-21T02:09:33;26.20;99.90
47660;DHT22;33403;43.608;1.458;2023-08-21T02:11:59;26.10;99.90
47660;DHT22;33403;43.608;1.458;2023-08-21T02:14:24;26.10;99.90
47660;DHT22;33403;43.608;1.458;2023-08-21T02:16:50;25.90;99.90
47660;DHT22;33403;43.608;1.458;2023-08-21T02:19:16;25.90;99.90
47660;DHT22;33403;43.608;1.458;2023-08-21T02:21:41;25.90;99.90
47660;DHT22;33403;43.608;1.458;2023-08-21T02:24:07;25.90;99.90
47660;DHT22;33403;43.608;1.458;2023-08-21T02:26:33;25.90;99.90
47660;DHT22;33403;43.608;1.458;2023-08-21T02:28:58;25.90;99.90
47660;DHT22;33403;43.608;1.458;2023-08-21T02:31:24;25.90;99.90
47660;DHT22;33403;43.608;1.458;2023-08-21T02:33:50;25.80;99.90
47660;DHT22;33403;43.608;1.458;2023-08-21T02:36:16;25.80;99.90
47660;DHT22;33403;43.608;1.458;2023-08-21T02:38:42;25.70;99.90
47660;DHT22;33403;43.608;1.458;2023-08-21T02:41:07;25.70;99.90
47660;DHT22;33403;43.608;1.458;2023-08-21T02:43:33;25.60;99.90
47660;DHT22;33403;43.608;1.458;2023-08-21T02:45:59;25.60;99.90
47660;DHT22;33403;43.608;1.458;2023-08-21T02:48:25;25.60;99.90
47660;DHT22;33403;43.608;1.458;2023-08-21T02:50:51;25.50;99.90
47660;DHT22;33403;43.608;1.458;2023-08-21T02:53:16;25.50;99.90
47660;DHT22;33403;43.608;1.458;2023-08-21T02:55:42;25.50;99.90
47660;DHT22;33403;43.608;1.458;2023-08-21T02:58:08;25.50;99.90
47660;DHT22;33403;43.608;1.458;2023-08-21T03:00:34;25.50;99.90
47660;DHT22;33403;43.608;1.458;2023-08-21T03:03:00;25.50;99.90
47660;DHT22;33403;43.608;1.458;2023-08-21T03:05:25;25.50;99.90
47660;DHT22;33403;43.608;1.458;2023-08-21T03:07:51;25.50;99.90
47660;DHT22;33403;43.608;1.458;2023-08-21T03:10:18;25.50;99.90
47660;DHT22;33403;43.608;1.458;2023-08-21T03:12:44;25.40;99.90
47660;DHT22;33403;43.608;1.458;2023-08-21T03:15:10;25.40;99.90
47660;DHT22;33403;43.608;1.458;2023-08-21T03:17:35;25.30;99.90
47660;DHT22;33403;43.608;1.458;2023-08-21T03:20:01;25.30;99.90
47660;DHT22;33403;43.608;1.458;2023-08-21T03:22:30;25.30;99.90
47660;DHT22;33403;43.608;1.458;2023-08-21T03:24:57;25.20;99.90
47660;DHT22;33403;43.608;1.458;2023-08-21T03:27:24;25.20;99.90
47660;DHT22;33403;43.608;1.458;2023-08-21T03:29:49;25.20;99.90
47660;DHT22;33403;43.608;1.458;2023-08-21T03:32:18;25.20;99.90
47660;DHT22;33403;43.608;1.458;2023-08-21T03:34:44;25.20;99.90
47660;DHT22;33403;43.608;1.458;2023-08-21T03:37:10;25.10;99.90
47660;DHT22;33403;43.608;1.458;2023-08-21T03:39:35;25.20;99.90
47660;DHT22;33403;43.608;1.458;2023-08-21T03:42:01;25.10;99.90
47660;DHT22;33403;43.608;1.458;2023-08-21T03:44:27;25.10;99.90
47660;DHT22;33403;43.608;1.458;2023-08-21T03:46:52;25.10;99.90
47660;DHT22;33403;43.608;1.458;2023-08-21T03:49:18;25.10;99.90
47660;DHT22;33403;43.608;1.458;2023-08-21T03:51:44;25.10;99.90
47660;DHT22;33403;43.608;1.458;2023-08-21T03:54:10;25.00;99.90
47660;DHT22;33403;43.608;1.458;2023-08-21T03:56:36;25.00;99.90
47660;DHT22;33403;43.608;1.458;2023-08-21T03:59:02;25.00;99.90
47660;DHT22;33403;43.608;1.458;2023-08-21T04:01:27;25.00;99.90
47660;DHT22;33403;43.608;1.458;2023-08-21T04:03:53;25.00;99.90
47660;DHT22;33403;43.608;1.458;2023-08-21T04:06:19;24.90;99.90
47660;DHT22;33403;43.608;1.458;2023-08-21T04:08:44;24.90;99.90
47660;DHT22;33403;43.608;1.458;2023-08-21T04:11:10;24.90;99.90
47660;DHT22;33403;43.608;1.458;2023-08-21T04:13:36;24.90;99.90
47660;DHT22;33403;43.608;1.458;2023-08-21T04:16:01;24.90;99.90
47660;DHT22;33403;43.608;1.458;2023-08-21T04:18:27;24.90;99.90
47660;DHT22;33403;43.608;1.458;2023-08-21T04:20:53;24.90;99.90
47660;DHT22;33403;43.608;1.458;2023-08-21T04:23:18;24.80;99.90
47660;DHT22;33403;43.608;1.458;2023-08-21T04:25:44;24.80;99.90
47660;DHT22;33403;43.608;1.458;2023-08-21T04:28:10;24.80;99.90
47660;DHT22;33403;43.608;1.458;2023-08-21T04:30:35;24.80;99.90
47660;DHT22;33403;43.608;1.458;2023-08-21T04:33:01;24.80;99.90
47660;DHT22;33403;43.608;1.458;2023-08-21T04:35:26;24.80;99.90
47660;DHT22;33403;43.608;1.458;2023-08-21T04:37:52;24.70;99.90
47660;DHT22;33403;43.608;1.458;2023-08-21T04:40:18;24.70;99.90
47660;DHT22;33403;43.608;1.458;2023-08-21T04:42:46;24.70;99.90
47660;DHT22;33403;43.608;1.458;2023-08-21T04:45:12;24.70;99.90
47660;DHT22;33403;43.608;1.458;2023-08-21T04:47:38;24.60;99.90
47660;DHT22;33403;43.608;1.458;2023-08-21T04:50:04;24.70;99.90
47660;DHT22;33403;43.608;1.458;2023-08-21T04:52:30;24.60;99.90
47660;DHT22;33403;43.608;1.458;2023-08-21T04:54:55;24.60;99.90
47660;DHT22;33403;43.608;1.458;2023-08-21T04:57:21;24.60;99.90
47660;DHT22;33403;43.608;1.458;2023-08-21T04:59:47;24.60;99.90
47660;DHT22;33403;43.608;1.458;2023-08-21T05:02:13;24.60;99.90
47660;DHT22;33403;43.608;1.458;2023-08-21T05:04:39;24.50;99.90
47660;DHT22;33403;43.608;1.458;2023-08-21T05:07:05;24.50;99.90
47660;DHT22;33403;43.608;1.458;2023-08-21T05:09:32;24.50;99.90
47660;DHT22;33403;43.608;1.458;2023-08-21T05:11:58;24.40;99.90
47660;DHT22;33403;43.608;1.458;2023-08-21T05:14:24;24.40;99.90
47660;DHT22;33403;43.608;1.458;2023-08-21T05:16:50;24.40;99.90
47660;DHT22;33403;43.608;1.458;2023-08-21T05:19:16;24.40;99.90
47660;DHT22;33403;43.608;1.458;2023-08-21T05:21:42;24.50;99.90
47660;DHT22;33403;43.608;1.458;2023-08-21T05:24:08;24.50;99.90
47660;DHT22;33403;43.608;1.458;2023-08-21T05:26:35;24.50;99.90
47660;DHT22;33403;43.608;1.458;2023-08-21T05:29:02;24.50;99.90
47660;DHT22;33403;43.608;1.458;2023-08-21T05:31:27;24.50;99.90
47660;DHT22;33403;43.608;1.458;2023-08-21T05:33:53;24.50;99.90
47660;DHT22;33403;43.608;1.458;2023-08-21T05:36:19;24.50;99.90
47660;DHT22;33403;43.608;1.458;2023-08-21T05:38:44;24.50;99.90
47660;DHT22;33403;43.608;1.458;2023-08-21T05:41:11;24.50;99.90
47660;DHT22;33403;43.608;1.458;2023-08-21T05:43:37;24.50;99.90
47660;DHT22;33403;43.608;1.458;2023-08-21T05:46:05;24.50;99.90
47660;DHT22;33403;43.608;1.458;2023-08-21T05:48:31;24.50;99.90
47660;DHT22;33403;43.608;1.458;2023-08-21T05:50:57;24.40;99.90
47660;DHT22;33403;43.608;1.458;2023-08-21T05:53:22;24.40;99.90
47660;DHT22;33403;43.608;1.458;2023-08-21T05:55:48;24.40;99.90
47660;DHT22;33403;43.608;1.458;2023-08-21T05:58:14;24.40;99.90
47660;DHT22;33403;43.608;1.458;2023-08-21T06:00:39;24.40;99.90
47660;DHT22;33403;43.608;1.458;2023-08-21T06:03:05;24.40;99.90
47660;DHT22;33403;43.608;1.458;2023-08-21T06:05:31;24.40;99.90
47660;DHT22;33403;43.608;1.458;2023-08-21T06:07:56;24.40;99.90
47660;DHT22;33403;43.608;1.458;2023-08-21T06:10:22;24.50;99.90
47660;DHT22;33403;43.608;1.458;2023-08-21T06:12:48;24.50;99.90
47660;DHT22;33403;43.608;1.458;2023-08-21T06:15:14;24.50;99.90
47660;DHT22;33403;43.608;1.458;2023-08-21T06:17:41;24.60;99.90
47660;DHT22;33403;43.608;1.458;2023-08-21T06:20:07;24.60;99.90
47660;DHT22;33403;43.608;1.458;2023-08-21T06:22:37;24.70;99.90
47660;DHT22;33403;43.608;1.458;2023-08-21T06:25:03;24.60;99.90
47660;DHT22;33403;43.608;1.458;2023-08-21T06:27:29;24.50;99.90
47660;DHT22;33403;43.608;1.458;2023-08-21T06:29:55;24.60;99.90
47660;DHT22;33403;43.608;1.458;2023-08-21T06:32:20;24.60;99.90
47660;DHT22;33403;43.608;1.458;2023-08-21T06:34:46;24.60;99.90
47660;DHT22;33403;43.608;1.458;2023-08-21T06:37:12;24.50;99.90
47660;DHT22;33403;43.608;1.458;2023-08-21T06:39:38;24.50;99.90
47660;DHT22;33403;43.608;1.458;2023-08-21T06:42:04;24.60;99.90
47660;DHT22;33403;43.608;1.458;2023-08-21T06:44:30;24.60;99.90
47660;DHT22;33403;43.608;1.458;2023-08-21T06:46:55;24.60;99.90
47660;DHT22;33403;43.608;1.458;2023-08-21T06:49:21;24.60;99.90
47660;DHT22;33403;43.608;1.458;2023-08-21T06:51:47;24.60;99.90
47660;DHT22;33403;43.608;1.458;2023-08-21T06:54:12;24.70;99.90
47660;DHT22;33403;43.608;1.458;2023-08-21T06:56:38;24.70;99.90
47660;DHT22;33403;43.608;1.458;2023-08-21T06:59:04;24.70;99.90
47660;DHT22;33403;43.608;1.458;2023-08-21T07:01:29;24.70;99.90
47660;DHT22;33403;43.608;1.458;2023-08-21T07:03:55;24.70;99.90
47660;DHT22;33403;43.608;1.458;2023-08-21T07:06:21;24.70;99.90
47660;DHT22;33403;43.608;1.458;2023-08-21T07:08:46;24.70;99.90
47660;DHT22;33403;43.608;1.458;2023-08-21T07:11:12;24.70;99.90
47660;DHT22;33403;43.608;1.458;2023-08-21T07:13:38;24.70;99.90
47660;DHT22;33403;43.608;1.458;2023-08-21T07:16:04;24.70;99.90
47660;DHT22;33403;43.608;1.458;2023-08-21T07:18:32;24.70;99.90
47660;DHT22;33403;43.608;1.458;2023-08-21T07:20:59;24.80;99.90
47660;DHT22;33403;43.608;1.458;2023-08-21T07:23:25;24.80;99.90
47660;DHT22;33403;43.608;1.458;2023-08-21T07:25:51;24.80;99.90
47660;DHT22;33403;43.608;1.458;2023-08-21T07:28:17;24.90;99.90
47660;DHT22;33403;43.608;1.458;2023-08-21T07:30:42;24.90;99.90
47660;DHT22;33403;43.608;1.458;2023-08-21T07:33:08;24.90;99.90
47660;DHT22;33403;43.608;1.458;2023-08-21T07:35:34;25.00;99.90
47660;DHT22;33403;43.608;1.458;2023-08-21T07:38:01;25.00;99.90
47660;DHT22;33403;43.608;1.458;2023-08-21T07:40:27;25.00;99.90
47660;DHT22;33403;43.608;1.458;2023-08-21T07:42:52;25.10;99.90
47660;DHT22;33403;43.608;1.458;2023-08-21T07:45:18;25.00;99.90
47660;DHT22;33403;43.608;1.458;2023-08-21T07:47:44;25.10;99.90
47660;DHT22;33403;43.608;1.458;2023-08-21T07:50:10;25.10;99.90
47660;DHT22;33403;43.608;1.458;2023-08-21T07:52:36;25.20;99.90
47660;DHT22;33403;43.608;1.458;2023-08-21T07:55:02;25.20;99.90
47660;DHT22;33403;43.608;1.458;2023-08-21T07:57:29;25.30;99.90
47660;DHT22;33403;43.608;1.458;2023-08-21T07:59:55;25.30;99.90
47660;DHT22;33403;43.608;1.458;2023-08-21T08:02:20;25.40;99.90
47660;DHT22;33403;43.608;1.458;2023-08-21T08:04:46;25.40;99.90
47660;DHT22;33403;43.608;1.458;2023-08-21T08:07:12;25.40;99.90
47660;DHT22;33403;43.608;1.458;2023-08-21T08:09:39;25.50;99.90
47660;DHT22;33403;43.608;1.458;2023-08-21T08:12:05;25.50;99.90
47660;DHT22;33403;43.608;1.458;2023-08-21T08:14:31;25.60;99.90
47660;DHT22;33403;43.608;1.458;2023-08-21T08:16:57;25.60;99.90
47660;DHT22;33403;43.608;1.458;2023-08-21T08:19:22;25.70;99.90
47660;DHT22;33403;43.608;1.458;2023-08-21T08:21:48;25.70;99.90
47660;DHT22;33403;43.608;1.458;2023-08-21T08:24:14;25.70;99.90
47660;DHT22;33403;43.608;1.458;2023-08-21T08:26:39;25.70;99.90
47660;DHT22;33403;43.608;1.458;2023-08-21T08:29:07;25.70;99.90
47660;DHT22;33403;43.608;1.458;2023-08-21T08:31:32;25.80;99.90
47660;DHT22;33403;43.608;1.458;2023-08-21T08:33:58;25.80;99.90
47660;DHT22;33403;43.608;1.458;2023-08-21T08:36:24;26.00;99.90
47660;DHT22;33403;43.608;1.458;2023-08-21T08:38:49;26.00;99.90
47660;DHT22;33403;43.608;1.458;2023-08-21T08:41:48;26.00;99.90
47660;DHT22;33403;43.608;1.458;2023-08-21T08:44:16;26.10;99.90
47660;DHT22;33403;43.608;1.458;2023-08-21T08:46:43;26.20;99.90
47660;DHT22;33403;43.608;1.458;2023-08-21T08:49:08;26.30;99.90
47660;DHT22;33403;43.608;1.458;2023-08-21T08:51:35;26.30;99.90
47660;DHT22;33403;43.608;1.458;2023-08-21T08:54:03;26.40;99.90
47660;DHT22;33403;43.608;1.458;2023-08-21T08:56:29;26.30;99.90
47660;DHT22;33403;43.608;1.458;2023-08-21T08:58:55;26.40;99.90
47660;DHT22;33403;43.608;1.458;2023-08-21T09:01:20;26.50;99.90
47660;DHT22;33403;43.608;1.458;2023-08-21T09:03:46;26.50;99.90
47660;DHT22;33403;43.608;1.458;2023-08-21T09:06:12;26.50;99.90
47660;DHT22;33403;43.608;1.458;2023-08-21T09:08:37;26.60;99.90
47660;DHT22;33403;43.608;1.458;2023-08-21T09:11:03;26.70;99.90
47660;DHT22;33403;43.608;1.458;2023-08-21T09:13:31;26.80;99.90
47660;DHT22;33403;43.608;1.458;2023-08-21T09:15:56;26.90;99.90
47660;DHT22;33403;43.608;1.458;2023-08-21T09:18:24;26.90;99.90
47660;DHT22;33403;43.608;1.458;2023-08-21T09:20:49;27.00;99.90
47660;DHT22;33403;43.608;1.458;2023-08-21T09:23:17;27.10;99.90
47660;DHT22;33403;43.608;1.458;2023-08-21T09:25:44;27.10;99.90
47660;DHT22;33403;43.608;1.458;2023-08-21T09:28:12;27.20;99.90
47660;DHT22;33403;43.608;1.458;2023-08-21T09:30:49;27.30;99.90
47660;DHT22;33403;43.608;1.458;2023-08-21T09:33:24;27.30;99.90
47660;DHT22;33403;43.608;1.458;2023-08-21T09:35:51;27.40;99.90
47660;DHT22;33403;43.608;1.458;2023-08-21T09:38:18;27.40;99.90
47660;DHT22;33403;43.608;1.458;2023-08-21T09:40:51;27.50;99.90
47660;DHT22;33403;43.608;1.458;2023-08-21T09:43:17;27.50;99.90
47660;DHT22;33403;43.608;1.458;2023-08-21T09:45:46;27.60;99.90
47660;DHT22;33403;43.608;1.458;2023-08-21T09:48:13;27.60;99.90
47660;DHT22;33403;43.608;1.458;2023-08-21T09:50:39;27.70;99.90
47660;DHT22;33403;43.608;1.458;2023-08-21T09:53:09;27.70;99.90
47660;DHT22;33403;43.608;1.458;2023-08-21T09:55:35;27.80;99.90
47660;DHT22;33403;43.608;1.458;2023-08-21T09:58:02;27.90;99.90
47660;DHT22;33403;43.608;1.458;2023-08-21T10:00:36;27.90;99.90
47660;DHT22;33403;43.608;1.458;2023-08-21T10:03:04;27.80;99.90
47660;DHT22;33403;43.608;1.458;2023-08-21T10:05:32;27.90;99.90
47660;DHT22;33403;43.608;1.458;2023-08-21T10:08:01;27.90;99.90
47660;DHT22;33403;43.608;1.458;2023-08-21T10:10:33;28.00;99.90
47660;DHT22;33403;43.608;1.458;2023-08-21T10:12:59;28.10;99.90
47660;DHT22;33403;43.608;1.458;2023-08-21T10:15:28;28.20;99.90
47660;DHT22;33403;43.608;1.458;2023-08-21T10:17:53;28.20;99.90
47660;DHT22;33403;43.608;1.458;2023-08-21T10:20:24;28.20;99.90
47660;DHT22;33403;43.608;1.458;2023-08-21T10:22:52;28.20;99.90
47660;DHT22;33403;43.608;1.458;2023-08-21T10:25:25;28.30;99.90
47660;DHT22;33403;43.608;1.458;2023-08-21T10:28:00;28.30;99.90
47660;DHT22;33403;43.608;1.458;2023-08-21T10:30:29;28.40;99.90
47660;DHT22;33403;43.608;1.458;2023-08-21T10:32:58;28.40;99.90
47660;DHT22;33403;43.608;1.458;2023-08-21T10:35:29;28.40;99.90
47660;DHT22;33403;43.608;1.458;2023-08-21T10:41:03;28.50;99.90
47660;DHT22;33403;43.608;1.458;2023-08-21T10:43:46;28.60;99.90
47660;DHT22;33403;43.608;1.458;2023-08-21T10:46:12;28.60;99.90
47660;DHT22;33403;43.608;1.458;2023-08-21T10:48:39;28.70;99.90
47660;DHT22;33403;43.608;1.458;2023-08-21T10:51:08;28.70;99.90
47660;DHT22;33403;43.608;1.458;2023-08-21T10:53:38;28.70;99.90
47660;DHT22;33403;43.608;1.458;2023-08-21T10:56:05;28.80;99.90
47660;DHT22;33403;43.608;1.458;2023-08-21T10:58:50;28.80;99.90
47660;DHT22;33403;43.608;1.458;2023-08-21T11:01:16;28.80;99.90
47660;DHT22;33403;43.608;1.458;2023-08-21T11:03:46;29.00;99.90
47660;DHT22;33403;43.608;1.458;2023-08-21T11:06:12;29.10;99.90
47660;DHT22;33403;43.608;1.458;2023-08-21T11:08:38;29.20;99.90
47660;DHT22;33403;43.608;1.458;2023-08-21T11:11:05;29.30;99.90
47660;DHT22;33403;43.608;1.458;2023-08-21T11:13:31;29.30;99.90
47660;DHT22;33403;43.608;1.458;2023-08-21T11:15:58;29.20;99.90
47660;DHT22;33403;43.608;1.458;2023-08-21T11:18:30;29.20;99.90
47660;DHT22;33403;43.608;1.458;2023-08-21T11:21:04;29.20;99.90
47660;DHT22;33403;43.608;1.458;2023-08-21T11:23:34;29.30;99.90
47660;DHT22;33403;43.608;1.458;2023-08-21T11:26:00;29.60;99.90
47660;DHT22;33403;43.608;1.458;2023-08-21T11:28:28;29.50;99.90
47660;DHT22;33403;43.608;1.458;2023-08-21T11:30:56;29.50;99.90
47660;DHT22;33403;43.608;1.458;2023-08-21T11:33:22;29.50;99.90
47660;DHT22;33403;43.608;1.458;2023-08-21T11:35:48;29.70;99.90
47660;DHT22;33403;43.608;1.458;2023-08-21T11:38:19;29.80;99.90
47660;DHT22;33403;43.608;1.458;2023-08-21T11:40:59;30.00;99.90
47660;DHT22;33403;43.608;1.458;2023-08-21T11:43:38;29.90;99.90
47660;DHT22;33403;43.608;1.458;2023-08-21T11:46:06;30.20;99.90
47660;DHT22;33403;43.608;1.458;2023-08-21T11:48:32;30.10;99.90
47660;DHT22;33403;43.608;1.458;2023-08-21T11:50:58;30.10;99.90
47660;DHT22;33403;43.608;1.458;2023-08-21T11:53:37;30.10;99.90
47660;DHT22;33403;43.608;1.458;2023-08-21T11:56:15;30.10;99.90
47660;DHT22;33403;43.608;1.458;2023-08-21T11:58:45;30.10;99.90
47660;DHT22;33403;43.608;1.458;2023-08-21T12:01:17;30.10;99.90
47660;DHT22;33403;43.608;1.458;2023-08-21T12:03:43;30.10;99.90
47660;DHT22;33403;43.608;1.458;2023-08-21T12:06:11;30.00;99.90
47660;DHT22;33403;43.608;1.458;2023-08-21T12:08:40;30.10;99.90
47660;DHT22;33403;43.608;1.458;2023-08-21T12:11:06;30.10;99.90
47660;DHT22;33403;43.608;1.458;2023-08-21T12:13:33;30.10;99.90
47660;DHT22;33403;43.608;1.458;2023-08-21T12:15:59;30.20;99.90
47660;DHT22;33403;43.608;1.458;2023-08-21T12:18:24;30.20;99.90
47660;DHT22;33403;43.608;1.458;2023-08-21T12:20:50;30.30;99.90
47660;DHT22;33403;43.608;1.458;2023-08-21T12:23:16;30.50;99.90
47660;DHT22;33403;43.608;1.458;2023-08-21T12:25:42;30.60;99.90
47660;DHT22;33403;43.608;1.458;2023-08-21T12:28:07;30.70;99.90
47660;DHT22;33403;43.608;1.458;2023-08-21T12:30:34;30.60;99.90
47660;DHT22;33403;43.608;1.458;2023-08-21T12:32:59;30.60;99.90
47660;DHT22;33403;43.608;1.458;2023-08-21T12:35:25;30.60;99.90
47660;DHT22;33403;43.608;1.458;2023-08-21T12:37:55;31.10;99.30
47660;DHT22;33403;43.608;1.458;2023-08-21T12:40:21;31.00;98.90
47660;DHT22;33403;43.608;1.458;2023-08-21T12:42:47;30.90;98.00
47660;DHT22;33403;43.608;1.458;2023-08-21T12:45:12;30.90;98.10
47660;DHT22;33403;43.608;1.458;2023-08-21T12:47:38;30.90;97.90
47660;DHT22;33403;43.608;1.458;2023-08-21T12:50:05;30.90;97.70
47660;DHT22;33403;43.608;1.458;2023-08-21T12:52:31;31.00;99.30
47660;DHT22;33403;43.608;1.458;2023-08-21T12:54:56;31.00;99.90
47660;DHT22;33403;43.608;1.458;2023-08-21T12:57:22;31.10;96.90
47660;DHT22;33403;43.608;1.458;2023-08-21T12:59:48;31.10;96.20
47660;DHT22;33403;43.608;1.458;2023-08-21T13:02:13;31.20;94.90
47660;DHT22;33403;43.608;1.458;2023-08-21T13:04:39;31.60;93.30
47660;DHT22;33403;43.608;1.458;2023-08-21T13:07:05;31.80;93.20
47660;DHT22;33403;43.608;1.458;2023-08-21T13:09:30;31.50;95.70
47660;DHT22;33403;43.608;1.458;2023-08-21T13:11:56;31.50;94.60
47660;DHT22;33403;43.608;1.458;2023-08-21T13:14:22;31.40;99.30
47660;DHT22;33403;43.608;1.458;2023-08-21T13:16:47;31.30;95.50
47660;DHT22;33403;43.608;1.458;2023-08-21T13:19:13;31.30;98.60
47660;DHT22;33403;43.608;1.458;2023-08-21T13:21:38;31.30;97.90
47660;DHT22;33403;43.608;1.458;2023-08-21T13:24:04;31.30;95.80
47660;DHT22;33403;43.608;1.458;2023-08-21T13:26:30;31.40;98.40
47660;DHT22;33403;43.608;1.458;2023-08-21T13:28:56;31.30;97.30
47660;DHT22;33403;43.608;1.458;2023-08-21T13:31:22;31.60;94.60
47660;DHT22;33403;43.608;1.458;2023-08-21T13:33:49;32.40;89.50
47660;DHT22;33403;43.608;1.458;2023-08-21T13:36:15;32.20;90.90
47660;DHT22;33403;43.608;1.458;2023-08-21T13:38:42;32.00;92.40
47660;DHT22;33403;43.608;1.458;2023-08-21T13:41:07;31.80;96.00
47660;DHT22;33403;43.608;1.458;2023-08-21T13:43:34;31.80;93.40
47660;DHT22;33403;43.608;1.458;2023-08-21T13:46:03;31.70;95.80
47660;DHT22;33403;43.608;1.458;2023-08-21T13:48:32;31.70;96.90
47660;DHT22;33403;43.608;1.458;2023-08-21T13:50:58;31.70;95.60
47660;DHT22;33403;43.608;1.458;2023-08-21T13:53:24;31.70;93.40
47660;DHT22;33403;43.608;1.458;2023-08-21T13:55:52;31.70;93.60
47660;DHT22;33403;43.608;1.458;2023-08-21T13:58:18;31.80;93.00
47660;DHT22;33403;43.608;1.458;2023-08-21T14:00:44;31.80;91.50
47660;DHT22;33403;43.608;1.458;2023-08-21T14:03:10;32.00;91.00
47660;DHT22;33403;43.608;1.458;2023-08-21T14:05:36;32.00;91.20
47660;DHT22;33403;43.608;1.458;2023-08-21T14:08:01;32.10;92.00
47660;DHT22;33403;43.608;1.458;2023-08-21T14:10:27;32.10;91.20
47660;DHT22;33403;43.608;1.458;2023-08-21T14:12:53;32.10;93.70
47660;DHT22;33403;43.608;1.458;2023-08-21T14:15:19;32.30;92.00
47660;DHT22;33403;43.608;1.458;2023-08-21T14:17:45;32.40;91.10
47660;DHT22;33403;43.608;1.458;2023-08-21T14:20:11;32.50;91.30
47660;DHT22;33403;43.608;1.458;2023-08-21T14:22:37;32.50;89.30
47660;DHT22;33403;43.608;1.458;2023-08-21T14:25:03;32.30;92.20
47660;DHT22;33403;43.608;1.458;2023-08-21T14:27:32;32.20;91.10
47660;DHT22;33403;43.608;1.458;2023-08-21T14:29:58;32.20;90.60
47660;DHT22;33403;43.608;1.458;2023-08-21T14:32:24;32.10;91.20
47660;DHT22;33403;43.608;1.458;2023-08-21T14:34:50;32.10;93.80
47660;DHT22;33403;43.608;1.458;2023-08-21T14:37:18;32.10;91.40
47660;DHT22;33403;43.608;1.458;2023-08-21T14:39:44;32.40;90.30
47660;DHT22;33403;43.608;1.458;2023-08-21T14:42:10;32.30;91.50
47660;DHT22;33403;43.608;1.458;2023-08-21T14:44:36;32.50;88.10
47660;DHT22;33403;43.608;1.458;2023-08-21T14:47:02;32.60;90.20
47660;DHT22;33403;43.608;1.458;2023-08-21T14:49:28;32.90;81.90
47660;DHT22;33403;43.608;1.458;2023-08-21T14:51:54;32.70;88.10
47660;DHT22;33403;43.608;1.458;2023-08-21T14:54:19;32.50;92.30
47660;DHT22;33403;43.608;1.458;2023-08-21T14:56:45;32.30;87.60
47660;DHT22;33403;43.608;1.458;2023-08-21T14:59:12;32.70;84.40
47660;DHT22;33403;43.608;1.458;2023-08-21T15:01:38;32.80;86.30
47660;DHT22;33403;43.608;1.458;2023-08-21T15:04:05;32.80;83.50
47660;DHT22;33403;43.608;1.458;2023-08-21T15:06:31;32.50;89.30
47660;DHT22;33403;43.608;1.458;2023-08-21T15:08:56;32.40;86.10
47660;DHT22;33403;43.608;1.458;2023-08-21T15:11:22;32.50;87.10
47660;DHT22;33403;43.608;1.458;2023-08-21T15:13:48;32.40;88.70
47660;DHT22;33403;43.608;1.458;2023-08-21T15:16:13;32.40;86.20
47660;DHT22;33403;43.608;1.458;2023-08-21T15:18:39;32.50;86.90
47660;DHT22;33403;43.608;1.458;2023-08-21T15:21:05;32.40;90.80
47660;DHT22;33403;43.608;1.458;2023-08-21T15:23:30;32.20;90.70
47660;DHT22;33403;43.608;1.458;2023-08-21T15:25:56;32.30;85.30
47660;DHT22;33403;43.608;1.458;2023-08-21T15:28:22;32.60;81.90
47660;DHT22;33403;43.608;1.458;2023-08-21T15:30:47;32.60;82.20
47660;DHT22;33403;43.608;1.458;2023-08-21T15:33:13;32.70;83.20